Time;durP1;ratioP1;P1;durP2;ratioP2;P2;SDS_P1;SDS_P2;PMS_P1;PMS_P2;Temp;Humidity;BMP_temperature;BMP_pressure;BME280_temperature;BME280_humidity;BME280_pressure;Samples;Min_cycle;Max_cycle;Signal;HPM_P1;HPM_P2
2022/12/09 00:01:44;;;;;;;14.43;10.25;;;3.00;99.90;;;;;;5071451;28;20048;-72
2022/12/09 00:04:09;;;;;;;17.08;10.57;;;2.90;99.90;;;;;;5071425;28;20040;-72
2022/12/09 00:06:35;;;;;;;15.55;10.30;;;2.90;99.90;;;;;;5071745;28;20036;-72
2022/12/09 00:09:00;;;;;;;14.35;10.30;;;2.90;99.90;;;;;;5071459;28;20119;-71
2022/12/09 00:11:26;;;;;;;15.10;9.52;;;2.80;99.90;;;;;;5071424;28;20046;-71
2022/12/09 00:13:55;;;;;;;15.73;10.00;;;2.80;99.90;;;;;;5071608;28;20127;-71
2022/12/09 00:16:22;;;;;;;13.93;10.07;;;2.80;99.90;;;;;;5071366;28;20127;-71
2022/12/09 00:18:48;;;;;;;15.10;10.02;;;2.90;99.90;;;;;;5071340;28;20044;-72
2022/12/09 00:21:26;;;;;;;13.77;9.80;;;2.90;99.90;;;;;;5071259;28;20051;-72
2022/12/09 00:23:53;;;;;;;15.50;10.27;;;2.90;99.90;;;;;;5071256;28;20043;-71
2022/12/09 00:26:21;;;;;;;17.98;10.00;;;2.90;99.90;;;;;;5071290;28;20119;-71
2022/12/09 00:28:47;;;;;;;13.80;9.98;;;2.90;99.90;;;;;;5071504;28;20040;-71
2022/12/09 00:31:16;;;;;;;15.25;11.07;;;2.90;99.90;;;;;;5071214;28;20489;-72
2022/12/09 00:33:42;;;;;;;17.80;10.82;;;2.90;99.90;;;;;;5054461;28;20036;-72
2022/12/09 00:36:15;;;;;;;17.10;11.02;;;2.90;99.90;;;;;;5074761;28;20066;-71
2022/12/09 00:38:42;;;;;;;16.45;10.95;;;2.90;99.90;;;;;;5074836;28;20555;-71
2022/12/09 00:41:08;;;;;;;14.82;11.25;;;2.90;99.90;;;;;;5074680;28;20055;-71
2022/12/09 00:43:34;;;;;;;20.58;12.05;;;2.90;99.90;;;;;;5074872;28;20053;-71
2022/12/09 00:46:00;;;;;;;17.88;11.88;;;2.90;99.90;;;;;;5074555;28;20089;-71
2022/12/09 00:48:26;;;;;;;16.95;11.15;;;2.90;99.90;;;;;;5074594;28;20119;-71
2022/12/09 00:50:52;;;;;;;17.63;11.00;;;2.90;99.90;;;;;;5074429;28;20257;-71
2022/12/09 00:53:19;;;;;;;16.58;11.38;;;2.80;99.90;;;;;;5074797;28;20053;-71
2022/12/09 00:55:44;;;;;;;17.88;11.07;;;2.80;99.90;;;;;;5074427;28;20151;-71
2022/12/09 00:58:11;;;;;;;16.88;12.00;;;2.80;99.90;;;;;;5076241;28;20039;-71
2022/12/09 01:00:37;;;;;;;15.98;12.07;;;2.80;99.90;;;;;;5074338;28;20490;-71
2022/12/09 01:03:03;;;;;;;18.73;11.63;;;2.70;99.90;;;;;;5074630;28;20051;-71
2022/12/09 01:05:28;;;;;;;16.95;12.45;;;2.60;99.90;;;;;;5074254;28;20047;-71
2022/12/09 01:07:54;;;;;;;20.27;13.13;;;2.70;99.90;;;;;;5074295;28;20041;-71
2022/12/09 01:10:19;;;;;;;16.85;12.68;;;2.60;99.90;;;;;;5074269;28;20409;-71
2022/12/09 01:12:45;;;;;;;17.33;12.80;;;2.60;99.90;;;;;;5074172;28;20049;-71
2022/12/09 01:15:11;;;;;;;16.23;12.35;;;2.50;99.90;;;;;;5074068;28;20044;-71
2022/12/09 01:17:37;;;;;;;15.30;11.85;;;2.50;99.90;;;;;;5074078;28;20083;-71
2022/12/09 01:20:04;;;;;;;19.70;12.15;;;2.50;99.90;;;;;;5074243;28;20049;-71
2022/12/09 01:22:30;;;;;;;18.10;12.10;;;2.30;99.90;;;;;;5057578;28;20556;-71
2022/12/09 01:24:55;;;;;;;18.45;12.27;;;2.30;99.90;;;;;;5074128;28;20086;-71
2022/12/09 01:27:21;;;;;;;17.13;11.82;;;2.20;99.90;;;;;;5073932;28;20115;-71
2022/12/09 01:29:46;;;;;;;16.55;12.30;;;2.20;99.90;;;;;;5074097;28;20036;-71
2022/12/09 01:32:12;;;;;;;17.60;12.27;;;2.20;99.90;;;;;;5073851;28;20409;-72
2022/12/09 01:34:38;;;;;;;19.00;12.85;;;2.10;99.90;;;;;;5073799;28;20036;-71
2022/12/09 01:37:03;;;;;;;19.13;13.32;;;2.10;99.90;;;;;;5073734;28;20035;-71
2022/12/09 01:39:29;;;;;;;18.70;12.90;;;2.10;99.90;;;;;;5073703;28;20070;-71
2022/12/09 01:41:55;;;;;;;17.27;12.80;;;2.10;99.90;;;;;;5073585;28;20102;-71
2022/12/09 01:44:25;;;;;;;17.00;12.35;;;2.00;99.90;;;;;;5073500;28;20072;-71
2022/12/09 01:46:56;;;;;;;15.63;11.82;;;2.00;99.90;;;;;;5072398;28;20115;-71
2022/12/09 01:49:33;;;;;;;18.17;12.25;;;2.00;99.90;;;;;;5073503;28;20493;-71
2022/12/09 01:52:14;;;;;;;18.17;12.90;;;2.00;99.90;;;;;;5073433;28;20497;-71
2022/12/09 01:54:44;;;;;;;18.65;13.43;;;2.10;99.90;;;;;;5073392;28;20044;-71
2022/12/09 01:57:10;;;;;;;19.13;12.80;;;2.10;99.90;;;;;;5073378;28;20101;-71
2022/12/09 01:59:37;;;;;;;19.35;13.48;;;2.10;99.90;;;;;;5056575;28;20048;-71
2022/12/09 02:02:04;;;;;;;19.13;13.15;;;2.10;99.90;;;;;;5073504;28;20064;-71
2022/12/09 02:04:35;;;;;;;17.15;13.18;;;2.10;99.90;;;;;;5073141;28;20036;-71
2022/12/09 02:07:05;;;;;;;18.52;12.43;;;2.10;99.90;;;;;;5073190;28;20093;-71
2022/12/09 02:09:31;;;;;;;15.95;12.73;;;2.10;99.90;;;;;;5073397;28;20067;-71
2022/12/09 02:12:02;;;;;;;18.75;12.35;;;2.20;99.90;;;;;;5073034;28;20420;-71
2022/12/09 02:14:39;;;;;;;18.48;13.02;;;2.10;99.90;;;;;;5073218;28;20063;-71
2022/12/09 02:17:30;;;;;;;19.05;13.20;;;2.10;99.90;;;;;;5072997;28;20041;-71
2022/12/09 02:20:00;;;;;;;18.42;13.57;;;2.20;99.90;;;;;;5072814;28;20052;-71
2022/12/09 02:22:35;;;;;;;19.60;14.10;;;2.20;99.90;;;;;;5072849;28;20048;-71
2022/12/09 02:25:25;;;;;;;19.13;12.88;;;2.10;99.90;;;;;;5073001;28;20047;-71
2022/12/09 02:28:08;;;;;;;17.75;11.60;;;2.20;99.90;;;;;;5072781;28;20040;-71
2022/12/09 02:31:00;;;;;;;17.80;12.80;;;2.10;99.90;;;;;;5072738;28;20051;-71
2022/12/09 02:33:34;;;;;;;16.95;12.55;;;2.10;99.90;;;;;;5072830;28;20501;-71
2022/12/09 02:36:04;;;;;;;18.77;12.57;;;2.10;99.90;;;;;;5072889;28;20123;-71
2022/12/09 02:38:31;;;;;;;17.30;12.48;;;2.10;99.90;;;;;;5072562;28;20048;-71
2022/12/09 02:41:16;;;;;;;20.55;13.55;;;2.20;99.90;;;;;;5072429;28;20090;-71
2022/12/09 02:43:47;;;;;;;17.52;12.93;;;2.20;99.90;;;;;;5073215;28;20033;-71
2022/12/09 02:46:15;;;;;;;17.88;13.32;;;2.20;99.90;;;;;;5072546;28;20072;-71
2022/12/09 02:48:46;;;;;;;20.45;14.18;;;2.10;99.90;;;;;;5072398;28;20481;-71
2022/12/09 02:51:16;;;;;;;20.17;14.90;;;2.10;99.90;;;;;;5072383;28;20055;-71
2022/12/09 02:53:45;;;;;;;23.60;16.38;;;2.10;99.90;;;;;;5072281;28;20067;-71
2022/12/09 02:56:11;;;;;;;33.70;20.73;;;2.10;99.90;;;;;;5072469;28;20044;-71
2022/12/09 02:58:37;;;;;;;37.17;21.05;;;2.10;99.90;;;;;;5071997;28;20063;-71
2022/12/09 03:01:03;;;;;;;33.60;20.48;;;2.10;99.90;;;;;;5072121;28;20079;-71
2022/12/09 03:03:32;;;;;;;30.15;18.52;;;2.00;99.90;;;;;;5072068;28;20566;-71
2022/12/09 03:06:07;;;;;;;27.52;17.08;;;2.10;99.90;;;;;;5072398;28;20032;-71
2022/12/09 03:08:53;;;;;;;24.08;16.27;;;2.10;99.90;;;;;;5072101;28;20048;-71
2022/12/09 03:11:21;;;;;;;27.60;16.13;;;2.00;99.90;;;;;;5072330;28;20544;-71
2022/12/09 03:14:12;;;;;;;20.30;14.30;;;2.10;99.90;;;;;;5071969;28;20417;-71
2022/12/09 03:16:48;;;;;;;23.17;14.98;;;2.10;99.90;;;;;;5072037;28;20098;-71
2022/12/09 03:19:36;;;;;;;32.92;17.67;;;2.00;99.90;;;;;;5072043;28;20052;-71
2022/12/09 03:22:06;;;;;;;28.75;16.17;;;2.00;99.90;;;;;;5071869;28;20505;-71
2022/12/09 03:24:45;;;;;;;24.95;14.75;;;2.00;99.90;;;;;;5072064;28;20505;-71
2022/12/09 03:27:18;;;;;;;25.20;15.10;;;2.00;99.90;;;;;;5071961;28;20040;-71
2022/12/09 03:29:47;;;;;;;24.25;15.50;;;2.00;99.90;;;;;;5071899;28;20068;-71
2022/12/09 03:32:16;;;;;;;21.35;13.63;;;2.00;99.90;;;;;;5071823;28;20126;-71
2022/12/09 03:34:45;;;;;;;18.85;13.80;;;1.90;99.90;;;;;;5071966;28;20036;-71
2022/12/09 03:37:12;;;;;;;23.48;13.27;;;1.90;99.90;;;;;;5071794;28;20040;-71
2022/12/09 03:39:39;;;;;;;21.08;13.55;;;1.90;99.90;;;;;;5071720;28;20409;-71
2022/12/09 03:42:14;;;;;;;16.60;12.80;;;1.90;99.90;;;;;;5071969;28;20190;-71
2022/12/09 03:44:56;;;;;;;17.25;13.43;;;1.90;99.90;;;;;;5073485;28;20040;-71
2022/12/09 03:47:22;;;;;;;19.83;12.43;;;1.80;99.90;;;;;;5071798;28;20508;-71
2022/12/09 03:49:48;;;;;;;22.83;13.38;;;1.70;99.90;;;;;;5071941;28;20344;-71
2022/12/09 03:53:06;;;;;;;19.08;13.23;;;1.70;99.90;;;;;;5071865;28;20040;-72
2022/12/09 03:56:01;;;;;;;16.90;12.63;;;1.60;99.90;;;;;;5068625;28;20413;-71
2022/12/09 03:58:31;;;;;;;20.65;12.50;;;1.50;99.90;;;;;;5071814;28;20481;-71
2022/12/09 04:00:57;;;;;;;18.05;12.95;;;1.50;99.90;;;;;;5071498;28;20049;-71
2022/12/09 04:03:23;;;;;;;19.25;12.80;;;1.40;99.90;;;;;;5071518;28;20040;-71
2022/12/09 04:05:48;;;;;;;18.20;13.00;;;1.40;99.90;;;;;;5071681;28;20045;-71
2022/12/09 04:08:14;;;;;;;18.77;12.85;;;1.40;99.90;;;;;;5071500;28;20041;-71
2022/12/09 04:10:39;;;;;;;22.58;12.90;;;1.30;99.90;;;;;;5074477;28;20089;-71
2022/12/09 04:13:05;;;;;;;17.40;12.52;;;1.30;99.90;;;;;;5075307;28;20051;-71
2022/12/09 04:15:30;;;;;;;20.02;12.45;;;1.30;99.90;;;;;;5075475;28;20040;-71
2022/12/09 04:17:56;;;;;;;16.75;11.98;;;1.30;99.90;;;;;;5075199;28;20098;-71
2022/12/09 04:20:21;;;;;;;28.30;13.90;;;1.20;99.90;;;;;;5075328;28;20043;-71
2022/12/09 04:22:47;;;;;;;20.05;14.18;;;1.20;99.90;;;;;;5075167;28;20607;-71
2022/12/09 04:25:13;;;;;;;24.67;15.52;;;1.10;99.90;;;;;;5075260;28;20045;-71
2022/12/09 04:27:38;;;;;;;24.23;17.17;;;1.10;99.90;;;;;;5075288;28;20482;-71
2022/12/09 04:30:05;;;;;;;28.92;17.42;;;1.10;99.90;;;;;;5074996;28;20456;-71
2022/12/09 04:32:30;;;;;;;23.23;16.55;;;1.00;99.90;;;;;;5074960;28;20131;-71
2022/12/09 04:34:56;;;;;;;24.40;15.88;;;1.10;99.90;;;;;;5074855;28;20151;-71
2022/12/09 04:37:21;;;;;;;22.77;16.50;;;1.10;99.90;;;;;;5076079;28;20040;-71
2022/12/09 04:39:47;;;;;;;24.52;15.77;;;1.00;99.90;;;;;;5075295;28;20444;-71
2022/12/09 04:42:13;;;;;;;24.60;15.63;;;0.90;99.90;;;;;;5074748;28;20124;-71
2022/12/09 04:44:38;;;;;;;23.25;15.45;;;0.90;99.90;;;;;;5074675;28;20087;-71
2022/12/09 04:47:04;;;;;;;20.85;14.60;;;1.00;99.90;;;;;;5074702;28;20048;-71
2022/12/09 04:49:30;;;;;;;21.70;13.75;;;0.90;99.90;;;;;;5074919;28;20052;-71
2022/12/09 04:51:56;;;;;;;19.10;13.40;;;1.00;99.90;;;;;;5074843;28;20052;-71
2022/12/09 04:54:21;;;;;;;20.13;13.98;;;0.90;99.90;;;;;;5074480;28;20040;-71
2022/12/09 04:56:48;;;;;;;20.77;13.32;;;0.90;99.90;;;;;;5074537;28;20047;-71
2022/12/09 04:59:14;;;;;;;23.88;14.60;;;0.90;99.90;;;;;;5074687;28;20044;-71
2022/12/09 05:01:40;;;;;;;22.42;13.63;;;0.90;99.90;;;;;;5074453;28;20173;-72
2022/12/09 05:04:05;;;;;;;20.40;13.50;;;0.80;99.90;;;;;;5074293;28;20043;-71
2022/12/09 05:06:31;;;;;;;19.33;12.90;;;0.80;99.90;;;;;;5074366;28;20045;-71
2022/12/09 05:08:57;;;;;;;19.25;13.15;;;0.80;99.90;;;;;;5074285;28;20051;-71
2022/12/09 05:11:23;;;;;;;21.48;13.82;;;0.70;99.90;;;;;;5074271;28;20052;-71
2022/12/09 05:13:50;;;;;;;19.45;13.48;;;0.70;99.90;;;;;;5074180;28;20047;-71
2022/12/09 05:16:17;;;;;;;21.65;13.63;;;0.70;99.90;;;;;;5074410;28;20087;-71
2022/12/09 05:18:43;;;;;;;20.13;13.48;;;0.70;99.90;;;;;;5074131;28;20052;-71
2022/12/09 05:21:12;;;;;;;18.83;13.30;;;0.70;99.90;;;;;;5074019;28;20048;-71
2022/12/09 05:23:38;;;;;;;19.65;13.30;;;0.70;99.90;;;;;;5075212;28;20037;-71
2022/12/09 05:26:06;;;;;;;18.42;13.60;;;0.60;99.90;;;;;;5073986;28;20089;-71
2022/12/09 05:28:32;;;;;;;20.25;14.02;;;0.70;99.90;;;;;;5074232;28;20115;-71
2022/12/09 05:31:06;;;;;;;18.60;12.32;;;0.60;99.90;;;;;;5073864;28;20080;-71
2022/12/09 05:33:32;;;;;;;20.13;13.65;;;0.60;99.90;;;;;;5073756;28;20051;-71
2022/12/09 05:35:58;;;;;;;18.58;13.40;;;0.50;99.90;;;;;;5073794;28;20040;-71
2022/12/09 05:38:24;;;;;;;20.80;13.85;;;0.50;99.90;;;;;;5074052;28;20056;-71
2022/12/09 05:40:50;;;;;;;18.65;13.25;;;0.40;99.90;;;;;;5073853;28;20408;-71
2022/12/09 05:43:16;;;;;;;19.27;13.60;;;0.40;99.90;;;;;;5073915;28;20040;-71
2022/12/09 05:45:42;;;;;;;23.85;14.57;;;0.40;99.90;;;;;;5073768;28;20070;-71
2022/12/09 05:48:08;;;;;;;20.40;14.52;;;0.40;99.90;;;;;;5073765;28;20052;-71
2022/12/09 05:50:33;;;;;;;18.70;13.77;;;0.40;99.90;;;;;;5073768;28;20405;-71
2022/12/09 05:52:59;;;;;;;22.95;14.10;;;0.40;99.90;;;;;;5057044;28;20045;-71
2022/12/09 05:55:25;;;;;;;21.88;13.93;;;0.30;99.90;;;;;;5073333;28;20524;-71
2022/12/09 05:57:50;;;;;;;22.30;13.70;;;0.30;99.90;;;;;;5073664;28;20033;-71
2022/12/09 06:00:16;;;;;;;21.52;14.80;;;0.40;99.90;;;;;;5073503;28;20497;-71
2022/12/09 06:02:42;;;;;;;20.48;14.48;;;0.30;99.90;;;;;;5073478;28;20114;-72
2022/12/09 06:05:08;;;;;;;25.48;14.48;;;0.40;99.90;;;;;;5073185;28;20386;-71
2022/12/09 06:07:34;;;;;;;21.30;15.30;;;0.30;99.90;;;;;;5073132;28;20400;-71
2022/12/09 06:10:00;;;;;;;23.15;15.45;;;0.30;99.90;;;;;;5073119;28;20040;-71
2022/12/09 06:12:26;;;;;;;27.00;15.35;;;0.30;99.90;;;;;;5073279;28;20123;-71
2022/12/09 06:14:51;;;;;;;21.33;14.60;;;0.30;99.90;;;;;;5072948;28;20405;-71
2022/12/09 06:17:17;;;;;;;24.63;16.05;;;0.30;99.90;;;;;;5073196;28;20043;-71
2022/12/09 06:19:43;;;;;;;24.85;16.45;;;0.30;99.90;;;;;;5073132;28;20062;-71
2022/12/09 06:22:08;;;;;;;20.83;14.73;;;0.30;99.90;;;;;;5072791;28;20049;-71
2022/12/09 06:24:34;;;;;;;24.02;15.77;;;0.30;99.90;;;;;;5072750;28;20040;-71
2022/12/09 06:27:00;;;;;;;22.65;15.70;;;0.30;99.90;;;;;;5072791;28;20093;-71
2022/12/09 06:29:26;;;;;;;24.38;15.27;;;0.30;99.90;;;;;;5072710;28;20044;-71
2022/12/09 06:31:51;;;;;;;21.10;14.07;;;0.40;99.90;;;;;;5072149;28;20044;-71
2022/12/09 06:34:17;;;;;;;20.48;14.30;;;0.30;99.90;;;;;;5072565;28;20051;-71
2022/12/09 06:36:42;;;;;;;21.35;14.68;;;0.30;99.90;;;;;;5072602;28;20076;-71
2022/12/09 06:39:08;;;;;;;21.25;14.48;;;0.20;99.90;;;;;;5072527;28;20033;-71
2022/12/09 06:41:34;;;;;;;20.95;14.35;;;0.20;99.90;;;;;;5072551;28;20109;-71
2022/12/09 06:43:59;;;;;;;23.23;14.93;;;0.20;99.90;;;;;;5072359;28;20552;-71
2022/12/09 06:46:26;;;;;;;21.52;15.13;;;0.20;99.90;;;;;;5072369;28;20036;-71
2022/12/09 06:48:53;;;;;;;21.60;15.07;;;0.20;99.90;;;;;;5072612;28;20040;-71
2022/12/09 06:51:20;;;;;;;24.13;15.05;;;0.20;99.90;;;;;;5072327;28;20493;-71
2022/12/09 06:53:46;;;;;;;26.00;15.50;;;0.10;99.90;;;;;;5072389;28;20131;-71
2022/12/09 06:56:13;;;;;;;22.02;15.13;;;0.10;99.90;;;;;;5072272;28;20036;-71
2022/12/09 06:58:39;;;;;;;22.70;14.30;;;0.10;99.90;;;;;;5072221;28;20052;-71
2022/12/09 07:01:13;;;;;;;22.98;15.18;;;0.10;99.90;;;;;;5072212;28;20037;-73
2022/12/09 07:03:40;;;;;;;20.80;14.82;;;0.10;99.90;;;;;;5072121;28;20444;-71
2022/12/09 07:06:06;;;;;;;25.23;17.13;;;0.10;99.90;;;;;;5072140;28;20044;-71
2022/12/09 07:08:33;;;;;;;23.20;15.95;;;0.00;99.90;;;;;;5072068;28;20033;-71
2022/12/09 07:10:59;;;;;;;24.63;16.40;;;0.10;99.90;;;;;;5072049;28;20051;-71
2022/12/09 07:13:24;;;;;;;25.90;17.38;;;0.00;99.90;;;;;;5071999;28;20041;-71
2022/12/09 07:15:50;;;;;;;26.63;16.70;;;0.00;99.90;;;;;;5072124;28;20048;-71
2022/12/09 07:18:16;;;;;;;27.38;17.27;;;0.00;99.90;;;;;;5072003;28;20523;-71
2022/12/09 07:20:41;;;;;;;24.45;17.30;;;0.00;99.90;;;;;;5071874;28;20041;-71
2022/12/09 07:23:07;;;;;;;24.70;17.67;;;-0.10;99.90;;;;;;5071891;28;20079;-71
2022/12/09 07:25:32;;;;;;;25.85;17.77;;;-0.10;99.90;;;;;;5055169;28;20032;-71
2022/12/09 07:27:58;;;;;;;24.42;18.45;;;-0.10;99.90;;;;;;5071877;28;20033;-71
2022/12/09 07:30:23;;;;;;;29.38;20.80;;;-0.10;99.90;;;;;;5071859;28;20052;-71
2022/12/09 07:32:49;;;;;;;25.73;19.38;;;-0.10;99.90;;;;;;5072110;28;20040;-71
2022/12/09 07:35:15;;;;;;;28.42;18.17;;;-0.20;99.90;;;;;;5071783;28;20466;-71
2022/12/09 07:37:40;;;;;;;25.75;16.73;;;-0.20;99.90;;;;;;5071841;28;20444;-71
2022/12/09 07:40:06;;;;;;;22.85;14.85;;;-0.20;99.90;;;;;;5071656;28;20044;-71
2022/12/09 07:42:32;;;;;;;21.92;14.63;;;-0.20;99.90;;;;;;5072032;28;20048;-72
2022/12/09 07:44:57;;;;;;;21.98;14.80;;;-0.20;99.90;;;;;;5073713;28;20153;-71
2022/12/09 07:47:23;;;;;;;20.60;14.05;;;-0.30;99.90;;;;;;5075969;28;20032;-71
2022/12/09 07:49:49;;;;;;;22.10;14.57;;;-0.30;99.90;;;;;;5075803;28;20036;-71
2022/12/09 07:52:14;;;;;;;21.42;14.95;;;-0.30;99.90;;;;;;5076045;28;20036;-71
2022/12/09 07:54:40;;;;;;;25.02;15.77;;;-0.20;99.90;;;;;;5075682;28;20401;-71
2022/12/09 07:57:05;;;;;;;28.40;16.10;;;-0.20;99.90;;;;;;5075680;28;20056;-71
2022/12/09 07:59:31;;;;;;;20.58;14.65;;;-0.20;99.90;;;;;;5075627;28;20041;-71
2022/12/09 08:01:57;;;;;;;24.45;15.93;;;-0.20;99.90;;;;;;5075524;28;20040;-71
2022/12/09 08:04:22;;;;;;;24.42;17.33;;;-0.10;99.90;;;;;;5075771;28;20048;-71
2022/12/09 08:06:48;;;;;;;28.33;18.95;;;0.00;99.90;;;;;;5075475;28;20067;-72
2022/12/09 08:09:13;;;;;;;30.90;18.90;;;0.00;99.90;;;;;;5075730;28;20048;-71
2022/12/09 08:11:39;;;;;;;28.38;18.23;;;0.10;99.90;;;;;;5075363;28;20417;-71
2022/12/09 08:14:08;;;;;;;27.73;17.90;;;0.10;99.90;;;;;;5058855;28;20040;-71
2022/12/09 08:16:34;;;;;;;29.83;17.08;;;0.10;99.90;;;;;;5075622;28;20037;-71
2022/12/09 08:19:00;;;;;;;25.02;16.60;;;0.10;99.90;;;;;;5075533;28;20048;-71
2022/12/09 08:21:28;;;;;;;29.58;17.83;;;0.20;99.90;;;;;;5075176;28;20497;-71
2022/12/09 08:23:55;;;;;;;27.45;17.95;;;0.10;99.90;;;;;;5075270;28;20040;-71
2022/12/09 08:26:23;;;;;;;29.33;18.63;;;0.10;99.90;;;;;;5075118;28;20505;-71
2022/12/09 08:28:49;;;;;;;28.58;18.13;;;0.20;99.90;;;;;;5075618;28;20051;-71
2022/12/09 08:31:20;;;;;;;28.50;18.90;;;0.20;99.90;;;;;;5075030;28;20040;-71
2022/12/09 08:33:46;;;;;;;29.30;19.67;;;0.30;99.90;;;;;;5075456;28;20044;-71
2022/12/09 08:36:30;;;;;;;35.80;20.38;;;0.30;99.90;;;;;;5075260;28;20485;-71
2022/12/09 08:39:00;;;;;;;35.95;21.90;;;0.40;99.90;;;;;;5075287;28;20552;-71
2022/12/09 08:41:34;;;;;;;59.42;27.10;;;0.50;99.90;;;;;;5075043;28;20041;-71
2022/12/09 08:44:04;;;;;;;131.88;30.38;;;0.50;99.90;;;;;;5075477;28;20036;-71
2022/12/09 08:46:30;;;;;;;180.07;30.95;;;0.60;99.90;;;;;;5074629;28;20051;-71
2022/12/09 08:48:55;;;;;;;288.50;36.72;;;0.70;99.90;;;;;;5074664;28;20068;-71
2022/12/09 08:51:21;;;;;;;421.13;39.92;;;0.70;99.90;;;;;;5074666;28;20075;-71
2022/12/09 08:53:46;;;;;;;712.53;52.97;;;0.80;99.90;;;;;;5074672;28;20044;-71
2022/12/09 08:56:14;;;;;;;528.38;43.58;;;0.80;99.90;;;;;;5074100;28;20189;-71
2022/12/09 08:58:41;;;;;;;467.77;42.53;;;0.90;99.90;;;;;;5074881;28;20513;-71
2022/12/09 09:01:17;;;;;;;548.15;45.53;;;0.90;99.90;;;;;;5074742;28;20036;-71
2022/12/09 09:03:43;;;;;;;364.90;37.28;;;0.90;99.90;;;;;;5074432;28;20425;-71
2022/12/09 09:06:09;;;;;;;506.10;38.67;;;0.90;99.90;;;;;;5074353;28;20116;-71
2022/12/09 09:08:35;;;;;;;407.63;35.90;;;1.00;99.90;;;;;;5074357;28;20115;-71
2022/12/09 09:11:00;;;;;;;531.30;40.75;;;1.00;99.90;;;;;;5074268;28;20484;-71
2022/12/09 09:13:26;;;;;;;370.88;34.50;;;1.00;99.90;;;;;;5074493;28;20055;-71
2022/12/09 09:15:52;;;;;;;475.20;39.53;;;1.00;99.90;;;;;;5074132;28;20051;-72
2022/12/09 09:18:17;;;;;;;280.52;32.30;;;1.00;99.90;;;;;;5074155;28;20043;-71
2022/12/09 09:20:47;;;;;;;436.35;37.38;;;1.00;99.90;;;;;;5057458;28;20048;-71
2022/12/09 09:23:15;;;;;;;425.70;39.83;;;1.00;99.90;;;;;;5074339;28;20051;-71
2022/12/09 09:25:42;;;;;;;312.20;32.95;;;1.00;99.90;;;;;;5074239;28;20412;-71
2022/12/09 09:28:08;;;;;;;271.95;34.10;;;0.90;99.90;;;;;;5074059;28;20040;-71
2022/12/09 09:30:35;;;;;;;309.92;33.67;;;0.90;99.90;;;;;;5073958;28;20044;-72
2022/12/09 09:33:00;;;;;;;416.55;40.60;;;0.90;99.90;;;;;;5073915;28;20044;-72
2022/12/09 09:35:26;;;;;;;327.85;34.15;;;0.90;99.90;;;;;;5073805;28;20054;-72
2022/12/09 09:37:53;;;;;;;333.15;36.58;;;0.90;99.90;;;;;;5057508;28;20127;-72
2022/12/09 09:40:20;;;;;;;187.85;33.70;;;0.80;99.90;;;;;;5073735;28;20044;-72
2022/12/09 09:42:48;;;;;;;227.95;33.58;;;0.90;99.90;;;;;;5073804;28;20075;-72
2022/12/09 09:45:18;;;;;;;262.35;31.75;;;0.80;99.90;;;;;;5056858;28;20037;-72
2022/12/09 09:47:49;;;;;;;130.32;29.60;;;0.80;99.90;;;;;;5073496;28;20113;-72
2022/12/09 09:50:36;;;;;;;254.95;35.22;;;0.80;99.90;;;;;;5073837;28;20040;-72
2022/12/09 09:53:33;;;;;;;116.88;27.20;;;0.80;99.90;;;;;;5073862;28;20565;-72
2022/12/09 09:56:10;;;;;;;298.67;35.60;;;0.80;99.90;;;;;;5016177;28;20099;-72
2022/12/09 09:58:55;;;;;;;340.40;37.38;;;0.70;99.90;;;;;;5016208;28;20049;-72
2022/12/09 10:01:25;;;;;;;115.38;27.63;;;0.70;99.90;;;;;;5015946;28;20505;-72
2022/12/09 10:04:10;;;;;;;227.30;32.00;;;0.70;99.90;;;;;;5015953;28;20073;-72
2022/12/09 10:06:51;;;;;;;330.67;32.90;;;0.80;99.90;;;;;;5005212;28;20049;-72
2022/12/09 10:09:39;;;;;;;313.23;32.20;;;0.80;99.90;;;;;;5015852;28;20506;-72
2022/12/09 10:12:21;;;;;;;350.58;34.17;;;0.80;99.90;;;;;;5016089;28;20045;-72
2022/12/09 10:14:53;;;;;;;270.73;32.72;;;0.80;99.90;;;;;;5015989;28;20461;-72
2022/12/09 10:17:27;;;;;;;349.10;38.42;;;0.80;99.90;;;;;;5015743;28;20073;-72
2022/12/09 10:20:09;;;;;;;161.38;28.75;;;0.90;99.90;;;;;;5015862;28;20136;-72
2022/12/09 10:22:45;;;;;;;190.27;28.15;;;1.00;99.90;;;;;;5015750;28;20108;-72
2022/12/09 10:25:21;;;;;;;259.80;31.75;;;1.00;99.90;;;;;;5015500;28;20053;-72
2022/12/09 10:27:55;;;;;;;245.13;31.15;;;1.00;99.90;;;;;;5031999;28;20045;-72
2022/12/09 10:30:21;;;;;;;182.43;32.08;;;1.00;99.90;;;;;;5015554;28;20045;-72
2022/12/09 10:32:47;;;;;;;135.50;27.58;;;1.10;99.90;;;;;;5053603;28;20055;-72
2022/12/09 10:35:16;;;;;;;261.35;35.95;;;1.20;99.90;;;;;;5072580;28;20047;-72
2022/12/09 10:37:41;;;;;;;306.67;35.75;;;1.20;99.90;;;;;;5072573;28;20094;-72
2022/12/09 10:40:10;;;;;;;135.32;27.48;;;1.30;99.90;;;;;;5072442;28;20040;-72
2022/12/09 10:45:55;;;;;;;118.13;30.30;;;1.30;99.90;;;;;;5050467;28;20508;-72
2022/12/09 10:48:36;;;;;;;123.80;29.48;;;1.20;99.90;;;;;;5072316;28;20036;-72
2022/12/09 10:51:20;;;;;;;129.45;28.83;;;1.20;99.90;;;;;;5072630;28;20045;-72
2022/12/09 10:54:09;;;;;;;112.43;28.27;;;1.30;99.90;;;;;;5072504;28;20079;-72
2022/12/09 10:56:38;;;;;;;78.43;26.52;;;1.30;99.90;;;;;;5044700;28;20048;-72
2022/12/09 10:59:10;;;;;;;65.72;27.05;;;1.30;99.90;;;;;;5072231;28;20047;-72
2022/12/09 11:01:50;;;;;;;131.55;27.60;;;1.30;99.90;;;;;;5072230;28;20063;-72
2022/12/09 11:04:24;;;;;;;118.57;30.40;;;1.30;99.90;;;;;;5072139;28;20040;-72
2022/12/09 11:06:51;;;;;;;115.88;29.05;;;1.30;99.90;;;;;;5072146;28;20481;-72
2022/12/09 11:09:27;;;;;;;107.00;28.83;;;1.30;99.90;;;;;;5072138;28;20041;-72
2022/12/09 11:11:53;;;;;;;56.15;27.42;;;1.30;99.90;;;;;;5072079;28;20493;-72
2022/12/09 11:14:24;;;;;;;54.88;27.10;;;1.30;99.90;;;;;;5072011;28;20111;-72
2022/12/09 11:17:15;;;;;;;53.35;26.20;;;1.30;99.90;;;;;;5072248;28;20044;-72
2022/12/09 11:19:41;;;;;;;55.60;28.10;;;1.30;99.90;;;;;;5071835;28;20097;-72
2022/12/09 11:22:22;;;;;;;50.00;25.73;;;1.30;99.90;;;;;;5072710;28;20040;-72
2022/12/09 11:24:51;;;;;;;82.28;26.98;;;1.30;99.90;;;;;;5072092;28;20040;-72
2022/12/09 11:27:31;;;;;;;57.22;27.40;;;1.40;99.90;;;;;;5071886;28;20040;-72
2022/12/09 11:30:04;;;;;;;59.42;25.88;;;1.40;99.90;;;;;;5071871;28;20520;-72
2022/12/09 11:32:30;;;;;;;;;;;1.40;99.90;;;;;;5072495;28;20051;-72
2022/12/09 11:34:56;;;;;;;60.05;26.65;;;1.30;99.90;;;;;;5071722;28;20356;-72
2022/12/09 11:37:22;;;;;;;65.35;28.55;;;1.20;99.90;;;;;;5071752;28;20040;-72
2022/12/09 11:39:51;;;;;;;62.38;28.70;;;1.30;99.90;;;;;;5072019;28;20047;-72
2022/12/09 11:42:21;;;;;;;51.83;27.60;;;1.20;99.90;;;;;;5072898;28;20048;-71
2022/12/09 11:44:51;;;;;;;51.50;27.77;;;1.30;99.90;;;;;;5071620;28;20036;-71
2022/12/09 11:47:31;;;;;;;49.60;27.65;;;1.30;99.90;;;;;;5071556;28;20059;-72
2022/12/09 11:50:17;;;;;;;58.63;26.98;;;1.30;99.90;;;;;;5071947;28;20048;-72
2022/12/09 11:52:43;;;;;;;47.60;25.38;;;1.30;99.90;;;;;;5070953;28;20044;-71
2022/12/09 11:55:20;;;;;;;57.15;28.45;;;1.40;99.90;;;;;;5071497;28;20469;-71
2022/12/09 11:58:00;;;;;;;52.85;28.10;;;1.40;99.90;;;;;;5071891;28;20074;-71
2022/12/09 12:00:35;;;;;;;42.95;25.35;;;1.40;99.90;;;;;;5071752;28;20041;-71
2022/12/09 12:03:16;;;;;;;41.95;24.35;;;1.50;99.90;;;;;;5071571;28;20044;-71
2022/12/09 12:05:44;;;;;;;44.20;25.85;;;1.50;99.90;;;;;;5071747;28;20493;-71
2022/12/09 12:08:36;;;;;;;46.67;25.58;;;1.60;99.90;;;;;;5071761;28;20050;-72
2022/12/09 12:11:10;;;;;;;42.05;24.60;;;1.70;99.90;;;;;;5071774;28;20119;-72
2022/12/09 12:13:44;;;;;;;41.17;24.67;;;1.70;99.90;;;;;;5071457;28;20493;-72
2022/12/09 12:16:28;;;;;;;38.70;23.88;;;1.80;99.90;;;;;;5071508;28;20477;-72
2022/12/09 12:19:12;;;;;;;40.42;24.42;;;1.90;99.90;;;;;;5071387;28;20043;-72
2022/12/09 12:21:59;;;;;;;49.25;25.70;;;1.90;99.90;;;;;;5071325;28;20210;-72
2022/12/09 12:25:02;;;;;;;44.05;25.67;;;1.90;99.90;;;;;;5071574;28;20504;-72
2022/12/09 12:28:04;;;;;;;40.13;24.08;;;1.90;99.90;;;;;;5071314;28;20037;-72
2022/12/09 12:30:47;;;;;;;44.35;24.67;;;2.00;99.90;;;;;;5072385;28;20505;-72
2022/12/09 12:33:34;;;;;;;41.42;24.55;;;2.00;99.90;;;;;;5075367;28;20562;-71
2022/12/09 12:36:19;;;;;;;42.15;25.55;;;2.00;99.90;;;;;;5074985;28;20049;-72
2022/12/09 12:38:56;;;;;;;41.88;25.15;;;2.00;99.90;;;;;;5075191;28;20076;-72
2022/12/09 12:41:30;;;;;;;42.47;25.65;;;2.00;99.90;;;;;;5074860;28;20044;-72
2022/12/09 12:47:24;;;;;;;40.10;24.73;;;2.00;99.90;;;;;;5074883;28;20044;-72
2022/12/09 12:50:05;;;;;;;43.72;24.83;;;2.00;99.90;;;;;;5074680;28;20028;-72
2022/12/09 12:52:47;;;;;;;39.67;23.00;;;2.00;99.90;;;;;;5074695;28;20512;-73
2022/12/09 12:55:44;;;;;;;38.88;23.92;;;2.00;99.90;;;;;;5057850;28;20036;-73
2022/12/09 12:58:15;;;;;;;44.63;25.27;;;2.00;99.90;;;;;;5074542;28;20067;-73